Time;durP1;ratioP1;P1;durP2;ratioP2;P2;SDS_P1;SDS_P2;PMS_P1;PMS_P2;Temp;Humidity;BMP_temperature;BMP_pressure;BME280_temperature;BME280_humidity;BME280_pressure;Samples;Min_cycle;Max_cycle;Signal;HPM_P1;HPM_P2
2022/01/21 00:00:08;;;;;;;21.73;8.55;;;;;;;1.19;80.28;101249.59;5002676;28;20083;-72
2022/01/21 00:02:34;;;;;;;17.55;6.00;;;;;;;1.19;80.28;101236.63;5012483;28;20045;-71
2022/01/21 00:04:59;;;;;;;15.88;5.88;;;;;;;1.22;80.21;101237.50;4987747;28;20045;-72
2022/01/21 00:07:24;;;;;;;20.98;7.88;;;;;;;1.39;80.83;101235.13;5008054;28;20155;-68
2022/01/21 00:09:50;;;;;;;18.85;5.60;;;;;;;1.58;79.50;101238.81;5008990;28;20042;-67
2022/01/21 00:12:15;;;;;;;18.58;5.18;;;;;;;1.65;78.36;101244.94;5006651;28;20053;-74
2022/01/21 00:14:43;;;;;;;17.00;5.68;;;;;;;1.60;78.92;101244.00;5005495;28;20049;-74
2022/01/21 00:17:08;;;;;;;10.88;5.82;;;;;;;1.57;79.04;101238.78;5008620;28;20038;-74
2022/01/21 00:19:38;;;;;;;26.40;8.05;;;;;;;1.46;79.29;101239.53;5008117;28;20044;-74
2022/01/21 00:30:17;;;;;;;18.85;5.32;;;;;;;1.43;79.41;101225.66;5007733;28;20106;-73
2022/01/21 00:32:45;;;;;;;12.93;5.30;;;;;;;1.42;79.86;101216.97;5008115;28;20495;-74
2022/01/21 00:35:11;;;;;;;22.00;6.97;;;;;;;1.39;79.61;101222.13;5007907;28;20038;-72
2022/01/21 00:37:37;;;;;;;13.93;5.07;;;;;;;1.33;79.15;101213.38;5011901;28;20418;-73
2022/01/21 00:40:04;;;;;;;14.60;4.55;;;;;;;1.27;79.73;101215.06;5012186;28;20034;-73
2022/01/21 00:45:11;;;;;;;25.17;7.47;;;;;;;1.21;80.03;101230.59;5012351;28;20034;-74
2022/01/21 00:47:36;;;;;;;17.83;5.85;;;;;;;1.19;79.95;101229.69;5012610;28;20034;-73
2022/01/21 00:50:03;;;;;;;21.95;5.78;;;;;;;1.19;80.32;101231.41;5012292;28;20414;-72
2022/01/21 00:52:28;;;;;;;19.23;5.22;;;;;;;1.16;79.91;101234.00;5011737;28;20037;-72
2022/01/21 00:54:53;;;;;;;12.07;5.72;;;;;;;1.16;80.56;101241.78;5011416;28;20499;-72
2022/01/21 00:57:19;;;;;;;20.67;6.28;;;;;;;1.14;80.51;101243.47;5010892;28;20478;-72
2022/01/21 00:59:44;;;;;;;18.95;6.22;;;;;;;1.15;80.19;101242.63;5011933;28;20072;-72
2022/01/21 01:02:09;;;;;;;16.52;5.70;;;;;;;1.19;80.44;101252.19;5010804;28;20042;-72
2022/01/21 01:04:35;;;;;;;22.08;6.43;;;;;;;1.19;80.58;101250.47;5011182;28;20042;-72
2022/01/21 01:07:00;;;;;;;19.02;5.70;;;;;;;1.20;80.64;101243.53;5011175;28;20037;-72
2022/01/21 01:09:26;;;;;;;20.23;6.20;;;;;;;1.22;79.90;101245.31;5012637;28;20499;-72
2022/01/21 01:20:00;;;;;;;15.25;4.55;;;;;;;1.29;79.54;101249.72;5011625;28;20416;-72
2022/01/21 01:28:09;;;;;;;20.95;7.50;;;;;;;1.35;79.60;101237.66;5010469;28;20044;-72
2022/01/21 01:30:36;;;;;;;21.70;7.20;;;;;;;1.32;79.92;101242.81;5011197;28;20034;-71
2022/01/21 01:33:05;;;;;;;11.77;5.03;;;;;;;1.35;79.86;101241.13;5010809;28;20565;-71
2022/01/21 01:35:33;;;;;;;20.00;6.13;;;;;;;1.34;79.60;101231.59;5009614;28;20037;-71
2022/01/21 01:40:51;;;;;;;11.85;5.60;;;;;;;1.29;80.15;101230.69;5011274;28;20052;-73
2022/01/21 01:51:00;;;;;;;11.95;6.13;;;;;;;1.26;80.02;101217.66;5009501;28;20037;-72
2022/01/21 01:53:37;;;;;;;15.65;5.57;;;;;;;1.25;80.15;101208.09;5017197;28;20037;-72
2022/01/21 01:56:06;;;;;;;14.70;7.03;;;;;;;1.25;79.71;101203.78;5029453;28;20041;-72
2022/01/21 01:58:41;;;;;;;16.23;5.95;;;;;;;1.26;80.40;101215.94;5031382;28;20057;-72
2022/01/21 02:01:07;;;;;;;17.02;7.25;;;;;;;1.24;80.15;101228.03;4997678;28;20073;-72
2022/01/21 02:03:33;;;;;;;32.50;7.47;;;;;;;1.23;80.46;101218.50;5029593;28;20029;-72
2022/01/21 02:05:59;;;;;;;15.48;6.00;;;;;;;1.27;80.29;101222.84;5028120;28;20048;-73
2022/01/21 02:08:26;;;;;;;17.95;6.05;;;;;;;1.32;79.76;101227.25;5030607;28;20033;-72
2022/01/21 02:10:51;;;;;;;34.60;7.75;;;;;;;1.34;80.03;101235.94;4990730;28;20107;-71
2022/01/21 02:13:23;;;;;;;16.63;5.85;;;;;;;1.34;80.39;101229.00;4992227;28;20034;-71
2022/01/21 02:15:57;;;;;;;17.88;6.57;;;;;;;1.36;80.17;101229.91;4990370;28;20089;-71
2022/01/21 02:23:54;;;;;;;21.52;6.63;;;;;;;1.41;80.05;101246.41;4992117;28;20034;-71
2022/01/21 02:26:20;;;;;;;21.73;7.55;;;;;;;1.42;80.09;101239.47;4990227;28;20053;-71
2022/01/21 02:28:46;;;;;;;22.77;6.03;;;;;;;1.47;79.96;101250.78;4989029;28;20101;-71
2022/01/21 02:31:11;;;;;;;16.02;6.03;;;;;;;1.48;79.93;101242.16;4989741;28;20042;-74
2022/01/21 02:33:36;;;;;;;19.17;7.07;;;;;;;1.48;79.62;101239.56;4990404;28;20069;-72
2022/01/21 02:36:02;;;;;;;20.20;7.82;;;;;;;1.48;80.13;101232.63;4990294;28;20157;-72
2022/01/21 02:38:27;;;;;;;25.52;7.43;;;;;;;1.49;79.47;101231.78;4990217;28;20116;-72
2022/01/21 02:40:52;;;;;;;25.58;7.85;;;;;;;1.50;79.59;101235.22;4990558;28;20060;-72
2022/01/21 02:43:20;;;;;;;19.08;6.88;;;;;;;1.53;79.79;101235.28;4990401;28;20122;-72
2022/01/21 02:45:47;;;;;;;21.23;8.52;;;;;;;1.51;80.13;101242.19;4989574;28;20042;-71
2022/01/21 02:48:12;;;;;;;24.05;8.30;;;;;;;1.55;80.02;101243.09;4990244;28;20054;-73
2022/01/21 02:50:38;;;;;;;23.50;9.50;;;;;;;1.59;79.75;101243.13;4990365;28;20065;-71
2022/01/21 02:53:11;;;;;;;20.77;7.80;;;;;;;1.58;80.33;101243.16;4990032;28;20039;-71
2022/01/21 02:55:36;;;;;;;22.10;7.63;;;;;;;1.57;80.18;101251.78;4989241;28;20046;-71
2022/01/21 02:58:02;;;;;;;14.23;7.03;;;;;;;1.56;80.32;101256.09;4990091;28;20038;-73
2022/01/21 03:00:27;;;;;;;23.58;7.82;;;;;;;1.58;80.07;101249.22;4989461;28;20506;-74
2022/01/21 03:02:53;;;;;;;14.02;7.57;;;;;;;1.58;79.96;101249.22;4989852;28;20069;-73
2022/01/21 03:05:19;;;;;;;24.85;8.70;;;;;;;1.56;80.40;101250.91;4989307;28;20035;-74
2022/01/21 03:07:46;;;;;;;30.35;9.77;;;;;;;1.56;80.55;101250.03;4988488;28;20046;-74
2022/01/21 03:10:12;;;;;;;14.73;7.53;;;;;;;1.59;80.06;101252.66;4989657;28;20559;-74
2022/01/21 03:12:38;;;;;;;16.65;6.93;;;;;;;1.60;80.85;101246.59;4989963;28;20046;-74
2022/01/21 03:15:04;;;;;;;20.08;7.38;;;;;;;1.59;80.56;101257.88;4988715;28;20050;-73
2022/01/21 03:17:29;;;;;;;18.83;6.63;;;;;;;1.57;80.51;101255.25;4990300;28;20169;-73
2022/01/21 03:19:55;;;;;;;16.35;6.47;;;;;;;1.62;80.50;101247.50;4989901;28;20506;-74
2022/01/21 03:22:20;;;;;;;27.33;9.40;;;;;;;1.61;80.51;101248.38;4987941;28;20038;-74
2022/01/21 03:24:46;;;;;;;16.67;6.50;;;;;;;1.57;80.11;101250.03;4987477;28;20038;-73
2022/01/21 03:27:12;;;;;;;24.95;7.07;;;;;;;1.58;80.52;101240.53;4989624;28;20061;-74
2022/01/21 03:29:37;;;;;;;20.80;7.75;;;;;;;1.59;80.06;101248.34;4987878;28;20499;-74
2022/01/21 03:32:03;;;;;;;19.77;6.53;;;;;;;1.57;80.27;101252.63;4990110;28;20080;-74
2022/01/21 03:34:28;;;;;;;20.25;7.57;;;;;;;1.60;80.71;101257.00;4982871;28;20208;-74
2022/01/21 03:36:54;;;;;;;24.17;7.50;;;;;;;1.58;80.69;101250.94;4989394;28;20042;-73
2022/01/21 03:39:20;;;;;;;19.25;8.82;;;;;;;1.60;80.14;101257.00;4989075;28;20041;-73
2022/01/21 03:41:45;;;;;;;21.75;6.45;;;;;;;1.63;80.55;101259.66;4989445;28;20049;-74
2022/01/21 03:44:10;;;;;;;18.00;7.03;;;;;;;1.65;80.07;101255.31;4988504;28;20040;-73
2022/01/21 03:46:36;;;;;;;26.80;6.45;;;;;;;1.67;80.33;101253.63;5023051;28;20038;-73
2022/01/21 03:49:03;;;;;;;22.27;7.38;;;;;;;1.71;80.27;101258.88;5028843;28;20091;-73
2022/01/21 03:51:29;;;;;;;17.25;7.00;;;;;;;1.72;80.25;101259.72;5028844;28;20040;-72
2022/01/21 03:53:54;;;;;;;16.58;5.75;;;;;;;1.72;80.15;101257.13;5027888;28;20041;-73
2022/01/21 03:56:20;;;;;;;19.88;7.15;;;;;;;1.67;79.59;101256.22;5027724;28;20095;-74
2022/01/21 03:58:45;;;;;;;21.17;7.40;;;;;;;1.64;80.22;101272.66;5029651;28;20037;-74
2022/01/21 04:01:11;;;;;;;25.90;6.43;;;;;;;1.60;80.13;101257.00;5029270;28;20056;-74
2022/01/21 04:03:36;;;;;;;18.08;7.28;;;;;;;1.58;79.67;101257.00;5027320;28;20060;-74
2022/01/21 04:06:02;;;;;;;19.80;6.93;;;;;;;1.56;79.95;101253.50;5026486;28;20041;-73
2022/01/21 04:08:28;;;;;;;18.20;6.60;;;;;;;1.50;80.33;101258.63;5009654;28;20037;-73
2022/01/21 04:10:53;;;;;;;27.23;11.10;;;;;;;1.48;80.33;101258.63;5011296;28;20050;-73
2022/01/21 04:13:20;;;;;;;16.77;7.47;;;;;;;1.46;80.08;101259.47;5012829;28;20034;-73
2022/01/21 04:15:51;;;;;;;13.88;6.78;;;;;;;1.43;80.98;101252.50;5011783;28;20507;-73
2022/01/21 04:18:18;;;;;;;14.85;5.80;;;;;;;1.43;80.72;101262.03;5011338;28;20514;-73
2022/01/21 04:20:45;;;;;;;27.30;7.13;;;;;;;1.44;80.16;101253.38;5011811;28;20042;-73
2022/01/21 04:23:11;;;;;;;31.92;8.88;;;;;;;1.43;80.62;101265.50;5012705;28;20442;-73
2022/01/21 04:25:38;;;;;;;29.77;8.05;;;;;;;1.42;80.85;101268.94;5010610;28;20191;-73
2022/01/21 04:28:03;;;;;;;21.45;7.47;;;;;;;1.45;80.55;101263.78;4993408;28;20123;-73
2022/01/21 04:30:29;;;;;;;18.52;6.32;;;;;;;1.50;80.32;101266.41;4992912;28;20065;-74
2022/01/21 04:32:54;;;;;;;20.77;7.28;;;;;;;1.51;80.54;101268.19;4992581;28;20120;-73
2022/01/21 04:35:20;;;;;;;21.95;6.90;;;;;;;1.52;80.30;101280.31;4991698;28;20045;-73
2022/01/21 04:37:55;;;;;;;22.63;6.15;;;;;;;1.52;80.24;101274.25;4992388;28;20045;-72
2022/01/21 04:40:23;;;;;;;14.40;5.75;;;;;;;1.48;80.18;101274.22;4992505;28;20042;-73
2022/01/21 04:48:17;;;;;;;17.45;6.28;;;;;;;1.47;80.54;101262.06;4991403;28;20044;-74
2022/01/21 04:50:53;;;;;;;15.63;5.40;;;;;;;1.49;80.72;101267.28;4991118;28;20038;-74
2022/01/21 04:53:20;;;;;;;16.20;5.32;;;;;;;1.55;79.98;101266.47;4992411;28;20126;-72
2022/01/21 04:55:46;;;;;;;18.02;4.97;;;;;;;1.52;79.74;101269.91;4991758;28;20034;-73
2022/01/21 04:58:11;;;;;;;16.05;5.45;;;;;;;1.54;79.99;101267.34;4993281;28;20026;-72
2022/01/21 05:00:37;;;;;;;17.25;5.97;;;;;;;1.53;79.86;101266.47;4992829;28;20038;-71
2022/01/21 05:03:02;;;;;;;16.52;5.80;;;;;;;1.53;80.17;101258.69;4992546;28;20069;-72
2022/01/21 05:05:28;;;;;;;21.10;5.97;;;;;;;1.50;80.22;101256.91;4991063;28;20116;-72
2022/01/21 05:07:55;;;;;;;23.52;8.57;;;;;;;1.50;79.97;101262.13;4994729;28;20030;-72
2022/01/21 05:10:20;;;;;;;13.98;6.55;;;;;;;1.52;80.20;101269.03;4998111;28;20034;-72
2022/01/21 05:12:46;;;;;;;21.55;6.57;;;;;;;1.52;80.29;101267.31;4992829;28;20085;-72
2022/01/21 05:15:26;;;;;;;17.35;9.35;;;;;;;1.59;80.46;101268.25;4991466;28;20046;-73
2022/01/21 05:17:51;;;;;;;12.20;5.07;;;;;;;1.61;80.16;101266.56;4992117;28;20065;-74
2022/01/21 05:20:17;;;;;;;15.35;4.95;;;;;;;1.62;80.06;101263.09;4991192;28;20519;-73
2022/01/21 05:22:44;;;;;;;16.15;5.45;;;;;;;1.59;79.98;101268.25;4991108;28;20030;-73
2022/01/21 05:25:16;;;;;;;16.27;5.90;;;;;;;1.58;80.07;101279.53;4991222;28;20030;-73
2022/01/21 05:27:44;;;;;;;14.70;5.90;;;;;;;1.55;80.23;101272.56;4990199;28;20093;-72
2022/01/21 05:30:10;;;;;;;19.08;6.50;;;;;;;1.55;79.76;101271.69;4991738;28;20777;-73
2022/01/21 05:32:35;;;;;;;16.73;5.13;;;;;;;1.56;80.06;101281.22;4992255;28;20034;-73
2022/01/21 05:35:00;;;;;;;21.15;6.13;;;;;;;1.56;79.82;101274.31;4991023;28;20448;-73
2022/01/21 05:37:26;;;;;;;22.17;6.38;;;;;;;1.57;79.85;101281.22;4989471;28;20034;-74
2022/01/21 05:39:52;;;;;;;15.18;5.95;;;;;;;1.58;80.09;101269.13;4991494;28;20045;-73
2022/01/21 05:42:19;;;;;;;21.52;5.53;;;;;;;1.54;79.64;101259.53;4990641;28;20126;-74
2022/01/21 05:47:10;;;;;;;20.85;6.53;;;;;;;1.55;80.05;101284.66;4991530;28;20035;-73
2022/01/21 05:49:36;;;;;;;17.25;6.60;;;;;;;1.56;80.05;101283.84;5008855;28;20104;-73
2022/01/21 05:52:15;;;;;;;13.40;5.57;;;;;;;1.58;80.20;101280.41;5010960;28;20034;-73
2022/01/21 05:54:41;;;;;;;13.38;6.07;;;;;;;1.58;79.80;101288.19;5009588;28;20629;-73
2022/01/21 05:57:08;;;;;;;12.52;5.50;;;;;;;1.61;80.03;101295.16;4999718;28;20037;-73
2022/01/21 05:59:34;;;;;;;11.75;6.15;;;;;;;1.65;80.06;101291.72;4996572;28;20058;-73
2022/01/21 06:02:00;;;;;;;16.63;8.65;;;;;;;1.66;79.84;101294.34;4986754;28;20065;-72
2022/01/21 06:04:25;;;;;;;23.48;7.95;;;;;;;1.70;80.01;101295.28;4990314;28;20049;-74
2022/01/21 06:06:51;;;;;;;22.65;6.63;;;;;;;1.69;79.88;101293.50;4990826;28;20046;-73
2022/01/21 06:09:16;;;;;;;19.30;6.97;;;;;;;1.70;79.84;101297.88;4990570;28;20041;-73
2022/01/21 06:11:42;;;;;;;17.85;5.75;;;;;;;1.67;79.87;101284.81;4991767;28;20031;-73
2022/01/21 06:14:07;;;;;;;17.83;6.45;;;;;;;1.68;79.98;101289.19;4991885;28;20045;-73
2022/01/21 06:16:38;;;;;;;20.38;7.43;;;;;;;1.66;79.94;101278.75;4991438;28;20061;-74
2022/01/21 06:19:03;;;;;;;22.58;7.22;;;;;;;1.67;79.95;101288.31;4991487;28;20449;-74
2022/01/21 06:21:28;;;;;;;15.65;6.25;;;;;;;1.68;80.16;101291.78;4990439;28;20101;-74
2022/01/21 06:23:54;;;;;;;17.13;7.05;;;;;;;1.71;79.87;101291.81;4990284;28;20044;-73
2022/01/21 06:26:19;;;;;;;20.45;6.45;;;;;;;1.71;79.97;101284.88;4990569;28;20045;-73
2022/01/21 06:28:45;;;;;;;21.30;8.57;;;;;;;1.68;80.14;101286.56;4991313;28;20048;-72
2022/01/21 06:31:10;;;;;;;23.35;8.30;;;;;;;1.64;79.82;101288.25;4993320;28;20038;-73
2022/01/21 06:33:35;;;;;;;19.27;8.00;;;;;;;1.62;80.11;101289.94;4990789;28;20049;-74
2022/01/21 06:36:01;;;;;;;10.88;5.60;;;;;;;1.61;80.26;101289.97;4995191;28;20038;-74
2022/01/21 06:38:27;;;;;;;15.07;6.35;;;;;;;1.59;80.51;101299.47;4990264;28;20081;-73
2022/01/21 06:40:54;;;;;;;16.42;6.50;;;;;;;1.58;80.35;101308.13;4992064;28;20048;-72
2022/01/21 06:43:20;;;;;;;17.15;6.07;;;;;;;1.56;80.28;101307.22;4991195;28;20034;-74
2022/01/21 06:45:45;;;;;;;16.27;6.72;;;;;;;1.55;80.40;101308.06;4989255;28;20101;-72
2022/01/21 06:48:11;;;;;;;17.33;6.80;;;;;;;1.54;80.37;101303.72;4990232;28;20065;-73
2022/01/21 06:50:39;;;;;;;20.30;6.60;;;;;;;1.54;80.68;101304.59;4990516;28;20068;-75
2022/01/21 06:53:05;;;;;;;20.42;8.18;;;;;;;1.55;80.31;101311.56;4992205;28;20042;-73
2022/01/21 06:55:31;;;;;;;11.48;5.65;;;;;;;1.54;80.57;101320.19;4988128;28;20053;-73
2022/01/21 06:57:56;;;;;;;18.10;6.72;;;;;;;1.55;80.46;101324.56;4989165;28;20046;-73
2022/01/21 07:00:22;;;;;;;10.82;5.38;;;;;;;1.57;79.86;101319.34;4990264;28;20034;-74
2022/01/21 07:02:49;;;;;;;21.33;7.97;;;;;;;1.58;80.69;101318.50;4990057;28;20049;-74
2022/01/21 07:05:16;;;;;;;17.38;6.00;;;;;;;1.58;80.76;101326.31;4989992;28;20030;-72
2022/01/21 07:07:42;;;;;;;20.13;8.27;;;;;;;1.57;80.57;101328.00;4990751;28;20034;-74
2022/01/21 07:10:11;;;;;;;21.27;6.63;;;;;;;1.59;80.75;101334.09;4988592;28;20488;-73
2022/01/21 07:12:37;;;;;;;21.88;6.72;;;;;;;1.60;80.60;101341.06;4989578;28;20689;-73
2022/01/21 07:15:04;;;;;;;15.27;6.80;;;;;;;1.62;80.73;101336.75;4989170;28;20046;-73
2022/01/21 07:17:29;;;;;;;17.17;6.55;;;;;;;1.65;80.70;101341.09;4989979;28;20451;-73
2022/01/21 07:19:54;;;;;;;29.77;7.80;;;;;;;1.66;80.54;101335.06;4989647;28;20100;-74
2022/01/21 07:22:20;;;;;;;21.05;8.07;;;;;;;1.68;80.96;101346.38;4989883;28;20047;-73
2022/01/21 07:24:45;;;;;;;31.13;7.18;;;;;;;1.71;80.44;101347.25;4988159;28;20042;-75
2022/01/21 07:27:11;;;;;;;19.05;8.57;;;;;;;1.74;80.78;101350.75;4989887;28;20034;-73
2022/01/21 07:29:36;;;;;;;16.85;6.82;;;;;;;1.76;80.71;101344.72;4989764;28;20038;-73
2022/01/21 07:32:02;;;;;;;16.13;6.43;;;;;;;1.77;80.79;101341.25;4990715;28;20061;-74
2022/01/21 07:34:27;;;;;;;13.07;6.38;;;;;;;1.78;80.71;101337.81;4988310;28;20077;-72
2022/01/21 07:36:54;;;;;;;12.90;7.20;;;;;;;1.80;80.62;101341.31;4990429;28;20045;-74
2022/01/21 07:39:21;;;;;;;19.10;7.60;;;;;;;1.81;80.32;101343.03;4989043;28;20168;-74
2022/01/21 07:41:46;;;;;;;30.42;7.65;;;;;;;1.81;80.74;101344.78;4990539;28;20096;-73
2022/01/21 07:44:12;;;;;;;15.30;6.65;;;;;;;1.83;80.38;101350.88;4989291;28;20113;-73
2022/01/21 07:46:39;;;;;;;24.50;7.03;;;;;;;1.83;80.55;101343.06;4990369;28;20045;-72
2022/01/21 07:49:04;;;;;;;21.02;7.03;;;;;;;1.83;80.52;101340.47;4986502;28;20052;-73
2022/01/21 07:51:29;;;;;;;23.58;9.50;;;;;;;1.82;80.45;101355.22;4988548;28;20034;-73
2022/01/21 07:53:55;;;;;;;24.08;7.78;;;;;;;1.79;80.58;101352.53;4989493;28;20153;-73
2022/01/21 07:56:20;;;;;;;23.55;9.75;;;;;;;1.78;80.72;101352.56;4989582;28;20030;-74
2022/01/21 07:58:45;;;;;;;17.13;8.55;;;;;;;1.80;81.50;101362.13;4989435;28;20530;-73
2022/01/21 08:01:11;;;;;;;21.20;11.68;;;;;;;1.85;81.00;101363.03;4990454;28;20062;-73
2022/01/21 08:03:36;;;;;;;12.75;7.38;;;;;;;1.86;81.20;101363.91;4989802;28;20100;-73
2022/01/21 08:06:04;;;;;;;28.65;8.75;;;;;;;1.89;81.01;101361.34;5007450;28;20133;-73
2022/01/21 08:08:30;;;;;;;15.23;8.07;;;;;;;1.92;80.82;101366.59;5007804;28;20452;-74
2022/01/21 08:10:56;;;;;;;27.30;9.75;;;;;;;1.95;80.95;101370.94;4990000;28;20042;-70
2022/01/21 08:13:21;;;;;;;14.90;8.17;;;;;;;1.96;81.32;101376.16;4989133;28;20045;-70
2022/01/21 08:15:46;;;;;;;28.63;9.35;;;;;;;2.02;81.02;101372.75;4986654;28;20619;-70
2022/01/21 08:18:13;;;;;;;21.55;10.02;;;;;;;2.07;80.88;101384.09;4985729;28;20034;-70
2022/01/21 08:20:39;;;;;;;17.20;8.32;;;;;;;2.08;80.81;101378.03;4988815;28;20121;-71
2022/01/21 08:23:04;;;;;;;22.63;10.73;;;;;;;2.14;80.88;101386.78;4989470;28;20134;-70
2022/01/21 08:25:29;;;;;;;16.27;9.80;;;;;;;2.18;80.68;101385.06;4988368;28;20034;-71
2022/01/21 08:27:55;;;;;;;17.52;8.60;;;;;;;2.19;80.23;101376.44;4988911;28;20499;-70
2022/01/21 08:30:21;;;;;;;17.98;10.25;;;;;;;2.24;80.44;101377.34;4989118;28;20465;-73
2022/01/21 08:32:46;;;;;;;16.42;9.40;;;;;;;2.29;80.37;101382.56;4988349;28;20030;-71
2022/01/21 08:35:11;;;;;;;20.17;9.05;;;;;;;2.31;80.02;101384.38;4988102;28;20123;-71
2022/01/21 08:37:37;;;;;;;25.20;11.65;;;;;;;2.37;79.92;101386.16;4988670;28;20041;-70
2022/01/21 08:40:05;;;;;;;19.02;9.88;;;;;;;2.38;80.10;101381.81;4992557;28;20045;-73
2022/01/21 08:42:30;;;;;;;15.73;9.95;;;;;;;2.45;79.91;101378.41;4997615;28;20037;-71
2022/01/21 08:44:56;;;;;;;17.58;8.52;;;;;;;2.46;79.50;101370.63;4991008;28;20087;-70
2022/01/21 08:47:22;;;;;;;14.25;8.20;;;;;;;2.51;79.66;101357.63;5005787;28;20053;-70
2022/01/21 08:49:49;;;;;;;15.02;8.05;;;;;;;2.53;79.55;101359.38;4989815;28;20137;-70
2022/01/21 08:52:20;;;;;;;17.17;9.27;;;;;;;2.53;79.01;101364.59;5019755;28;20164;-71
2022/01/21 08:54:48;;;;;;;22.48;9.05;;;;;;;2.57;79.40;101365.50;5023062;28;20693;-70
2022/01/21 08:57:15;;;;;;;18.58;7.85;;;;;;;2.61;79.60;101359.47;5001569;28;20034;-71
2022/01/21 08:59:41;;;;;;;15.10;7.82;;;;;;;2.68;79.08;101363.00;4990390;28;20042;-70
2022/01/21 09:02:07;;;;;;;22.77;12.70;;;;;;;2.75;78.95;101367.41;4990705;28;20053;-70
2022/01/21 09:04:33;;;;;;;21.55;8.90;;;;;;;2.76;78.72;101376.97;5021796;28;20049;-72
2022/01/21 09:06:59;;;;;;;15.82;8.65;;;;;;;2.81;78.92;101375.28;5011438;28;20129;-71
2022/01/21 09:09:25;;;;;;;17.92;8.13;;;;;;;2.82;78.67;101374.41;5011036;28;20037;-72
2022/01/21 09:11:53;;;;;;;20.25;9.90;;;;;;;2.84;78.53;101371.81;5024929;28;20042;-71
2022/01/21 09:14:18;;;;;;;16.50;8.18;;;;;;;2.86;78.51;101365.75;5013926;28;20164;-71
2022/01/21 09:16:44;;;;;;;20.10;7.55;;;;;;;2.97;78.71;101369.31;5010591;28;20593;-72
2022/01/21 09:19:10;;;;;;;15.18;7.75;;;;;;;3.00;78.43;101360.63;5015978;28;20033;-71
2022/01/21 09:21:37;;;;;;;22.67;9.30;;;;;;;3.09;78.04;101368.53;5016530;28;20033;-72
2022/01/21 09:24:05;;;;;;;17.80;11.55;;;;;;;3.16;77.30;101370.31;5016255;28;20555;-73
2022/01/21 09:26:31;;;;;;;26.45;10.25;;;;;;;3.19;77.28;101375.53;5013285;28;20115;-71
2022/01/21 09:28:59;;;;;;;17.00;7.78;;;;;;;3.27;77.05;101374.72;5009570;28;20043;-72
2022/01/21 09:31:25;;;;;;;14.93;7.22;;;;;;;3.27;76.74;101380.78;5015140;28;20061;-72
2022/01/21 09:33:51;;;;;;;17.63;7.45;;;;;;;3.32;76.50;101386.91;5014782;28;20563;-73
2022/01/21 09:36:18;;;;;;;14.77;8.30;;;;;;;3.34;76.55;101385.19;5015108;28;20085;-73
2022/01/21 09:38:43;;;;;;;21.08;10.10;;;;;;;3.44;76.34;101386.13;5014703;28;20045;-73
2022/01/21 09:41:11;;;;;;;15.48;8.38;;;;;;;3.52;75.78;101392.28;5015764;28;20033;-71
2022/01/21 09:43:39;;;;;;;16.92;9.02;;;;;;;3.48;75.87;101379.19;5016857;28;20153;-74
2022/01/21 09:46:07;;;;;;;12.13;7.75;;;;;;;3.49;75.42;101371.38;5015844;28;20056;-71
2022/01/21 09:48:50;;;;;;;18.55;8.20;;;;;;;3.58;75.41;101352.31;5016569;28;20087;-72
2022/01/21 09:51:16;;;;;;;12.45;6.75;;;;;;;3.85;74.60;101370.66;5015905;28;20034;-73
2022/01/21 09:53:42;;;;;;;18.48;7.20;;;;;;;4.60;72.11;101371.72;5014594;28;20038;-73
2022/01/21 09:56:09;;;;;;;10.40;6.80;;;;;;;5.15;69.82;101364.72;5012481;28;20156;-72
2022/01/21 09:58:34;;;;;;;14.45;7.30;;;;;;;5.87;67.47;101370.63;5013705;28;20344;-72
2022/01/21 10:01:05;;;;;;;14.70;8.35;;;;;;;6.70;64.41;101370.19;5013303;28;20044;-73
2022/01/21 10:03:31;;;;;;;14.73;5.90;;;;;;;6.47;65.25;101378.19;5011726;28;20470;-72
2022/01/21 10:05:57;;;;;;;15.20;6.30;;;;;;;6.14;65.97;101381.00;5009716;28;20088;-74
2022/01/21 10:08:24;;;;;;;15.00;6.50;;;;;;;5.91;66.36;101385.47;5006630;28;20037;-74
2022/01/21 10:10:50;;;;;;;11.07;6.80;;;;;;;5.44;68.10;101392.59;5011051;28;20044;-73
2022/01/21 10:13:19;;;;;;;15.48;7.30;;;;;;;5.49;68.38;101387.31;5011532;28;20064;-73
2022/01/21 10:15:46;;;;;;;21.00;7.07;;;;;;;5.67;68.14;101381.19;5010078;28;20125;-72
2022/01/21 10:18:18;;;;;;;17.13;7.07;;;;;;;5.98;67.53;101374.09;5009162;28;20084;-74
2022/01/21 10:21:12;;;;;;;18.77;7.28;;;;;;;5.88;67.57;101377.59;5011210;28;20075;-73
2022/01/21 10:23:40;;;;;;;16.00;7.93;;;;;;;5.64;68.35;101384.69;5010210;28;20525;-75
2022/01/21 10:26:09;;;;;;;17.45;6.65;;;;;;;5.41;69.22;101386.47;5009880;28;20042;-73
2022/01/21 10:28:35;;;;;;;13.73;6.03;;;;;;;5.16;69.95;101392.59;5011303;28;20038;-73
2022/01/21 10:31:08;;;;;;;12.65;5.50;;;;;;;5.26;69.69;101388.25;5010702;28;20048;-72
2022/01/21 10:33:39;;;;;;;17.15;5.47;;;;;;;5.43;69.15;101401.28;5010154;28;20037;-73
2022/01/21 10:36:29;;;;;;;13.75;5.63;;;;;;;5.30;69.56;101403.06;5009671;28;20041;-73
2022/01/21 10:39:12;;;;;;;21.80;7.53;;;;;;;5.11;70.26;101404.81;5010190;28;20049;-74
2022/01/21 10:41:43;;;;;;;17.25;8.60;;;;;;;4.97;71.05;101409.16;5007170;28;20030;-73
2022/01/21 10:44:19;;;;;;;12.07;6.10;;;;;;;4.84;71.99;101403.06;5010085;28;20026;-74
2022/01/21 10:47:06;;;;;;;16.70;6.13;;;;;;;4.82;71.58;101398.72;5008712;28;20030;-73
2022/01/21 10:49:32;;;;;;;14.68;6.15;;;;;;;4.89;71.43;101393.50;5009233;28;20083;-72
2022/01/21 10:51:58;;;;;;;23.33;8.93;;;;;;;5.03;71.27;101398.72;5022922;28;20091;-71
2022/01/21 10:54:26;;;;;;;22.27;8.68;;;;;;;5.10;71.08;101389.16;5023802;28;20038;-73
2022/01/21 10:57:06;;;;;;;17.98;6.40;;;;;;;5.06;71.18;101401.34;5008065;28;20034;-74
2022/01/21 10:59:54;;;;;;;13.63;7.38;;;;;;;5.00;71.79;101396.13;5004922;28;20856;-73
2022/01/21 11:02:47;;;;;;;14.27;8.30;;;;;;;4.87;71.86;101395.25;5006958;28;20068;-74
2022/01/21 11:05:38;;;;;;;10.52;6.53;;;;;;;4.82;71.99;101402.19;5002989;28;20192;-73
2022/01/21 11:08:10;;;;;;;18.95;6.70;;;;;;;4.84;72.35;101396.97;5023073;28;20049;-72
2022/01/21 11:10:45;;;;;;;10.75;6.13;;;;;;;4.80;72.17;101396.13;5022422;28;20056;-74
2022/01/21 11:13:22;;;;;;;18.67;8.40;;;;;;;4.73;73.12;101399.59;5023060;28;20441;-74
2022/01/21 11:15:52;;;;;;;17.98;7.50;;;;;;;4.72;72.86;101401.31;5024477;28;20037;-74
2022/01/21 11:18:19;;;;;;;13.70;6.85;;;;;;;4.79;72.75;101406.56;5024435;28;20041;-73
2022/01/21 11:20:59;;;;;;;18.83;8.65;;;;;;;4.79;72.76;101401.34;5023371;28;20132;-73
2022/01/21 11:23:27;;;;;;;14.20;8.57;;;;;;;4.77;72.49;101401.31;5010067;28;20118;-73
2022/01/21 11:26:00;;;;;;;15.05;6.80;;;;;;;4.73;72.66;101402.22;5010753;28;20037;-73
2022/01/21 11:28:39;;;;;;;16.50;7.50;;;;;;;4.66;73.06;101400.47;5013977;28;20109;-72
2022/01/21 11:31:06;;;;;;;14.90;8.38;;;;;;;4.65;73.30;101394.38;5004139;28;20041;-72
2022/01/21 11:33:32;;;;;;;15.00;8.60;;;;;;;4.64;73.43;101397.84;5004700;28;20501;-72
2022/01/21 11:35:57;;;;;;;16.90;7.30;;;;;;;4.67;72.99;101391.75;5016967;28;20061;-72
2022/01/21 11:38:25;;;;;;;13.23;6.97;;;;;;;4.71;72.70;101389.13;5009865;28;20065;-74
2022/01/21 11:40:52;;;;;;;17.85;8.63;;;;;;;4.64;73.16;101383.91;5012178;28;20084;-73
2022/01/21 11:43:18;;;;;;;14.23;7.43;;;;;;;4.66;74.04;101380.44;5010151;28;20042;-73
2022/01/21 11:48:54;;;;;;;17.73;6.43;;;;;;;4.67;73.55;101370.84;5006013;28;20038;-72
2022/01/21 11:51:26;;;;;;;22.20;9.15;;;;;;;4.69;73.82;101372.59;5007087;28;20140;-72
2022/01/21 11:53:57;;;;;;;21.23;7.97;;;;;;;4.65;74.09;101368.25;4987773;28;20046;-72
2022/01/21 11:56:43;;;;;;;22.77;7.85;;;;;;;4.66;73.87;101354.31;4983901;28;20410;-72
2022/01/21 11:59:22;;;;;;;;;;;;;;;4.62;73.57;101352.56;4993162;28;20091;-74
2022/01/21 12:01:48;;;;;;;16.65;8.02;;;;;;;4.59;74.07;101352.56;5004718;28;19917;-72
2022/01/21 12:04:42;;;;;;;16.55;8.65;;;;;;;4.62;73.52;101357.78;5001267;28;20045;-73
2022/01/21 12:07:40;;;;;;;15.77;8.00;;;;;;;4.65;73.83;101357.81;5002761;28;20041;-72
2022/01/21 12:10:06;;;;;;;20.42;8.10;;;;;;;4.64;74.01;101345.59;4998969;28;20065;-74
2022/01/21 12:12:59;;;;;;;13.35;7.05;;;;;;;4.70;73.41;101347.31;4990011;28;20034;-73
2022/01/21 12:15:36;;;;;;;18.02;7.55;;;;;;;4.69;73.71;101343.84;5001458;28;20038;-72
2022/01/21 12:20:58;;;;;;;12.50;6.90;;;;;;;4.74;73.20;101338.63;4984602;28;20049;-72